Airfield :
LOGIN :

Register | Disclaimer

   EN    FR    IT 

 










Legend :    VFR   Marginal VFR   IFR   Intensive IFR   Very Intensive IFR
Visi :
Ceiling :
>= 8 km
>= 3000ft
5 to 8 km
1000 to 3000 ft
1500m to 5 km
500 to 1000 ft
800 to 1500m
200 to 500 ft
< 800m
< 200 ft
Symbols :   Thunderstorms  Fog  Heavy snow  Heavy precipitations  Wind > 20 kt
SIGMETs :     Misc.  Thunderstorms  Icing  Turbulence  Mountain Waves  Volcanic Ashes







- Airport Elevation : 995 ft
- IATA code : KTW


EPKT - Katowice

CURRENT METAR :
  • 182000Z VRB02KT 2000 0800N BCFG BR NSC 11/10 Q1020

EXPIRED METARs :
  • 181930Z VRB01KT 5000 MIFG BR NSC 11/10 Q1020
  • 181900Z 04001KT 3200 MIFG BR NSC 12/10 Q1020
  • 181830Z VRB01KT 9000 NSC 12/11 Q1020
  • 181800Z VRB02KT CAVOK 13/11 Q1019
  • 181730Z 24002KT 6000 NSC 13/11 Q1019

TAF TAF EPKT
Valid from the 18 at 18:00 until the 19 at 18:00 UTC


181730Z 1818/1918 VRB02KT 7000 NSC
BECMG 1818/1821 2000 BR
BECMG 1821/1823 0400 FG
TEMPO 1823/1907 0100 FG OVC001
BECMG 1907/1909 34010KT 7000 BKN005
BECMG 1909/1911 BKN013
No reported NOTAMs for that airfield.



MET'MAP, your aeronautical weather chart ! - Copyright ORBIFLY December 2007 - Disclaimer

ORBIFLY MET'MAP TEAM :

Programming & Development : Alexandra Zaïnal
Concept & Development : Baudouin d'Aumeries
Co-Development & Prog : Marc-Olivier Méhu
Technical & hardware support : Manuel Goepfert

Contact : metmap@orbifly.com




SOURCES & CREDITS :

   NOAA